Terminal Aerodrome Forecast
Issued by NWS

Home | Current Version | Previous Version | Text Only | Print | Product List | Glossary On
Versions: 1 2 3 4 5 6 7 8 9 10 11 12 13 14 15 16 17 18 19 20 21 22 23 24 25 26 27 28 29 30 31 32 33 34 35 36 37 38 39 40 41 42 43 44 45
000
FTUS45 KCYS 212109 AAC
TAFRWL
TAF AMD
KRWL 212109Z 2121/2218 24030G45KT P6SM VCSH BKN020 OVC030
     FM212300 25020G35KT 1SM -SN BLSN BKN005 OVC015
     FM220200 26030G48KT 5SM BR VCSH BKN025 OVC050
     FM220800 27025G40KT P6SM SCT025 BKN040=

USA.gov is the U.S. government's official web portal to all federal, state and local government web resources and services.